createdAt,value
2019-04-13T00:00:23.524Z,9.20
2019-04-13T00:05:08.807Z,8.90
2019-04-13T00:09:18.891Z,7.57
2019-04-13T00:13:27.363Z,7.57
2019-04-13T00:17:35.989Z,7.97
2019-04-13T00:21:44.571Z,8.70
2019-04-13T00:25:52.847Z,8.67
2019-04-13T00:30:00.756Z,8.47
2019-04-13T00:34:09.079Z,10.87
2019-04-13T00:38:16.811Z,10.97
2019-04-13T00:42:24.917Z,10.97
2019-04-13T00:46:33.783Z,12.17
2019-04-13T00:50:42.080Z,13.20
2019-04-13T00:54:49.970Z,14.40
2019-04-13T00:58:58.305Z,14.77
2019-04-13T01:03:06.847Z,15.20
2019-04-13T01:07:15.155Z,15.50
2019-04-13T01:11:22.971Z,16.30
2019-04-13T01:15:30.859Z,17.03
2019-04-13T01:19:39.393Z,18.13
2019-04-13T01:23:47.609Z,17.90
2019-04-13T01:27:55.947Z,17.30
2019-04-13T01:32:04.045Z,18.17
2019-04-13T01:36:12.392Z,17.57
2019-04-13T01:40:20.430Z,17.73
2019-04-13T01:44:28.111Z,17.83
2019-04-13T01:48:37.361Z,17.43
2019-04-13T01:52:45.549Z,17.23
2019-04-13T01:56:53.381Z,17.93
2019-04-13T02:01:18.992Z,14.60
2019-04-13T02:05:41.853Z,14.87
2019-04-13T02:10:11.270Z,15.27
2019-04-13T02:14:19.112Z,15.17
2019-04-13T02:18:26.999Z,15.90
2019-04-13T02:22:35.169Z,14.73
2019-04-13T02:26:43.247Z,16.00
2019-04-13T02:30:51.464Z,15.90
2019-04-13T02:34:59.262Z,16.63
2019-04-13T02:39:07.733Z,17.47
2019-04-13T02:43:16.124Z,18.67
2019-04-13T02:47:24.434Z,17.80
2019-04-13T02:51:32.334Z,17.90
2019-04-13T02:55:40.465Z,18.50
2019-04-13T02:59:48.495Z,17.87
2019-04-13T03:03:56.703Z,18.53
2019-04-13T03:08:05.613Z,18.07
2019-04-13T03:12:13.538Z,18.83
2019-04-13T03:16:48.356Z,16.23
2019-04-13T03:20:56.620Z,17.57
2019-04-13T03:25:04.538Z,18.13
2019-04-13T03:29:12.440Z,17.27
2019-04-13T03:33:20.678Z,17.20
2019-04-13T03:37:28.590Z,18.20
2019-04-13T03:41:37.124Z,17.77
2019-04-13T03:45:45.336Z,19.60
2019-04-13T03:49:53.134Z,19.73
2019-04-13T03:54:01.256Z,20.37
2019-04-13T03:58:09.073Z,20.87
2019-04-13T04:02:17.393Z,24.23
2019-04-13T04:06:25.281Z,24.03
2019-04-13T04:10:33.540Z,21.73
2019-04-13T04:14:41.335Z,19.67
2019-04-13T04:18:49.441Z,20.03
2019-04-13T04:22:57.344Z,19.90
2019-04-13T04:27:06.813Z,18.60
2019-04-13T04:31:14.472Z,15.20
2019-04-13T04:35:22.537Z,14.63
2019-04-13T04:39:30.338Z,15.80
2019-04-13T04:43:38.154Z,15.13
2019-04-13T04:47:46.071Z,15.97
2019-04-13T04:51:54.164Z,14.93
2019-04-13T04:56:02.587Z,13.70
2019-04-13T05:00:10.469Z,14.07
2019-04-13T05:04:18.331Z,12.97
2019-04-13T05:08:26.460Z,14.13
2019-04-13T05:12:34.463Z,14.57
2019-04-13T05:16:42.575Z,13.77
2019-04-13T05:20:50.387Z,12.90
2019-04-13T05:24:58.082Z,13.23
2019-04-13T05:29:06.003Z,14.57
2019-04-13T05:33:14.826Z,12.87
2019-04-13T05:37:22.855Z,13.03
2019-04-13T05:41:30.791Z,13.33
2019-04-13T05:45:39.570Z,15.37
2019-04-13T05:49:47.626Z,15.03
2019-04-13T05:53:55.725Z,15.20
2019-04-13T05:58:03.742Z,15.17
2019-04-13T06:02:12.098Z,13.17
2019-04-13T06:06:20.282Z,15.37
2019-04-13T06:10:28.190Z,14.63
2019-04-13T06:14:36.084Z,13.63
2019-04-13T06:18:43.839Z,13.17
2019-04-13T06:22:52.318Z,13.83
2019-04-13T06:27:00.465Z,15.87
2019-04-13T06:31:27.153Z,14.03
2019-04-13T06:35:35.545Z,12.90
2019-04-13T06:39:43.052Z,12.50
2019-04-13T06:43:50.855Z,13.93
2019-04-13T06:48:00.521Z,12.97
2019-04-13T06:52:08.508Z,11.63
2019-04-13T06:56:16.432Z,12.57
2019-04-13T07:00:24.749Z,14.03
2019-04-13T07:04:32.764Z,11.70
2019-04-13T07:08:52.533Z,14.23
2019-04-13T07:13:13.763Z,11.33
2019-04-13T07:17:25.049Z,12.27
2019-04-13T07:21:33.204Z,10.37
2019-04-13T07:25:41.317Z,12.53
2019-04-13T07:29:49.124Z,11.83
2019-04-13T07:33:57.432Z,12.00
2019-04-13T07:38:05.656Z,11.40
2019-04-13T07:42:13.359Z,12.77
2019-04-13T07:46:46.107Z,11.87
2019-04-13T07:51:00.305Z,13.03
2019-04-13T07:55:08.367Z,11.37
2019-04-13T07:59:18.421Z,10.67
2019-04-13T08:03:26.004Z,11.77
2019-04-13T08:07:33.925Z,11.63
2019-04-13T08:11:42.234Z,13.50
2019-04-13T08:15:50.111Z,11.97
2019-04-13T08:20:12.472Z,13.30
2019-04-13T08:24:21.037Z,11.00
2019-04-13T08:28:28.943Z,11.90
2019-04-13T08:32:36.637Z,13.97
2019-04-13T08:36:44.884Z,14.47
2019-04-13T08:40:52.681Z,12.60
2019-04-13T08:45:00.782Z,11.83
2019-04-13T08:49:08.617Z,13.20
2019-04-13T08:53:16.363Z,13.67
2019-04-13T08:57:24.529Z,16.53
2019-04-13T09:01:32.384Z,24.77
2019-04-13T09:05:40.874Z,16.23
2019-04-13T09:09:50.723Z,17.27
2019-04-13T09:13:58.534Z,17.07
2019-04-13T09:18:33.542Z,16.13
2019-04-13T09:22:41.972Z,16.90
2019-04-13T09:26:50.016Z,15.80
2019-04-13T09:30:58.130Z,13.10
2019-04-13T09:35:06.019Z,15.67
2019-04-13T09:39:14.425Z,19.70
2019-04-13T09:43:26.643Z,12.80
2019-04-13T09:47:34.503Z,15.80
2019-04-13T09:51:42.211Z,10.37
2019-04-13T09:55:50.512Z,10.67
2019-04-13T09:59:58.236Z,10.53
2019-04-13T10:04:06.577Z,10.47
2019-04-13T10:08:14.481Z,13.40
2019-04-13T10:12:40.626Z,13.27
2019-04-13T10:16:57.006Z,16.47
2019-04-13T10:21:04.931Z,22.00
2019-04-13T10:25:12.963Z,17.97
2019-04-13T10:29:22.775Z,18.97
2019-04-13T10:33:30.730Z,44.43
2019-04-13T10:37:38.341Z,19.23
2019-04-13T10:41:46.164Z,5.90
2019-04-13T10:46:05.233Z,5.20
2019-04-13T10:50:24.581Z,17.10
2019-04-13T10:54:32.298Z,11.73
2019-04-13T10:58:40.447Z,13.20
2019-04-13T11:02:48.071Z,11.20
2019-04-13T11:06:56.076Z,19.03
2019-04-13T11:11:03.744Z,18.10
2019-04-13T11:15:12.379Z,18.43
2019-04-13T11:19:20.596Z,12.60
2019-04-13T11:23:35.827Z,5.77
2019-04-13T11:27:38.464Z,7.90
2019-04-13T11:31:46.170Z,6.80
2019-04-13T11:35:54.778Z,7.40
2019-04-13T11:40:03.112Z,6.23
2019-04-13T11:44:28.261Z,6.60
2019-04-13T11:49:07.642Z,6.77
2019-04-13T11:53:15.422Z,6.00
2019-04-13T11:57:23.611Z,23.47
2019-04-13T12:01:45.646Z,12.57
2019-04-13T12:05:54.471Z,15.57
2019-04-13T12:10:21.728Z,7.43
2019-04-13T12:14:51.798Z,6.70
2019-04-13T12:19:23.944Z,5.50
2019-04-13T12:23:31.898Z,7.97
2019-04-13T12:27:40.104Z,3.87
2019-04-13T12:31:49.912Z,8.53
2019-04-13T12:35:57.560Z,6.90
2019-04-13T12:40:17.494Z,3.13
2019-04-13T12:44:36.532Z,5.07
2019-04-13T12:48:36.319Z,4.07
2019-04-13T12:52:44.064Z,3.90
2019-04-13T12:56:52.320Z,15.57
2019-04-13T13:01:22.293Z,11.40
2019-04-13T13:05:32.824Z,12.97
2019-04-13T13:09:42.457Z,5.30
2019-04-13T13:13:52.555Z,4.60
2019-04-13T13:18:01.439Z,3.70
2019-04-13T13:22:09.351Z,6.80
2019-04-13T13:26:17.262Z,6.33
2019-04-13T13:30:25.941Z,19.07
2019-04-13T13:34:34.223Z,12.83
2019-04-13T13:38:42.224Z,7.47
2019-04-13T13:42:50.048Z,3.70
2019-04-13T13:46:58.375Z,2.93
2019-04-13T13:51:06.175Z,3.17
2019-04-13T13:55:14.417Z,4.33
2019-04-13T13:59:22.146Z,4.50
2019-04-13T14:03:30.364Z,3.73
2019-04-13T14:07:38.143Z,4.50
2019-04-13T14:11:45.858Z,4.77
2019-04-13T14:15:54.162Z,4.00
2019-04-13T14:20:02.415Z,5.40
2019-04-13T14:24:11.398Z,3.30
2019-04-13T14:28:19.646Z,3.23
2019-04-13T14:32:27.581Z,2.97
2019-04-13T14:36:36.057Z,3.30
2019-04-13T14:40:55.309Z,3.27
2019-04-13T14:44:54.839Z,4.13
2019-04-13T14:49:04.008Z,3.53
2019-04-13T14:53:14.872Z,3.77
2019-04-13T14:57:21.475Z,5.80
2019-04-13T15:01:29.284Z,6.40
2019-04-13T15:05:39.146Z,4.70
2019-04-13T15:09:46.919Z,15.73
2019-04-13T15:13:55.682Z,5.97
2019-04-13T15:18:16.312Z,5.17
2019-04-13T15:22:23.239Z,4.63
2019-04-13T15:26:31.947Z,8.17
2019-04-13T15:30:45.625Z,3.33
2019-04-13T15:34:51.200Z,3.80
2019-04-13T15:39:02.783Z,3.97
2019-04-13T15:43:18.420Z,3.70
2019-04-13T15:47:23.890Z,4.97
2019-04-13T15:51:30.185Z,10.33
2019-04-13T15:55:37.801Z,6.20
2019-04-13T15:59:45.927Z,5.20
2019-04-13T16:03:55.157Z,8.53
2019-04-13T16:08:05.282Z,9.33
2019-04-13T16:12:21.305Z,8.30
2019-04-13T16:16:31.813Z,6.10
2019-04-13T16:20:38.736Z,7.13
2019-04-13T16:24:46.448Z,11.50
2019-04-13T16:29:12.659Z,12.80
2019-04-13T16:33:47.114Z,7.63
2019-04-13T16:37:54.943Z,7.90
2019-04-13T16:42:10.625Z,9.17
2019-04-13T16:46:26.619Z,6.80
2019-04-13T16:50:53.561Z,6.33
2019-04-13T16:55:09.813Z,6.57
2019-04-13T16:59:44.915Z,6.37
2019-04-13T17:04:01.025Z,7.97
2019-04-13T17:08:10.183Z,6.93
2019-04-13T17:12:29.872Z,6.47
2019-04-13T17:16:27.674Z,6.50
2019-04-13T17:20:45.799Z,6.73
2019-04-13T17:25:03.914Z,9.20
2019-04-13T17:29:33.843Z,9.20
2019-04-13T17:34:00.539Z,10.23
2019-04-13T17:38:09.174Z,9.83
2019-04-13T17:42:47.309Z,9.60
2019-04-13T17:47:14.432Z,9.13
2019-04-13T17:51:50.137Z,9.57
2019-04-13T17:56:13.446Z,9.00
2019-04-13T18:00:55.990Z,11.57
2019-04-13T18:05:38.876Z,12.57
2019-04-13T18:10:06.725Z,11.73
2019-04-13T18:14:34.045Z,13.37
2019-04-13T18:18:49.665Z,12.13
2019-04-13T18:22:58.851Z,12.07
2019-04-13T18:27:07.057Z,15.10
2019-04-13T18:31:17.432Z,12.57
2019-04-13T18:35:25.759Z,12.83
2019-04-13T18:39:34.826Z,13.40
2019-04-13T18:43:43.250Z,13.23
2019-04-13T18:47:51.435Z,13.17
2019-04-13T18:52:00.738Z,12.50
2019-04-13T18:56:08.914Z,10.67
2019-04-13T19:00:19.402Z,10.73
2019-04-13T19:04:27.090Z,11.47
2019-04-13T19:08:35.094Z,10.87
2019-04-13T19:12:42.851Z,11.47
2019-04-13T19:16:50.818Z,11.63
2019-04-13T19:20:58.532Z,10.23
2019-04-13T19:25:07.038Z,10.37
2019-04-13T19:29:15.369Z,9.93
2019-04-13T19:33:23.377Z,11.33
2019-04-13T19:37:31.098Z,9.83
2019-04-13T19:41:39.537Z,10.50
2019-04-13T19:45:47.419Z,10.93
2019-04-13T19:49:55.696Z,10.77
2019-04-13T19:54:04.077Z,10.47
2019-04-13T19:58:11.796Z,10.40
2019-04-13T20:02:21.738Z,9.60
2019-04-13T20:06:29.547Z,9.00
2019-04-13T20:10:37.367Z,10.13
2019-04-13T20:14:45.815Z,13.60
2019-04-13T20:18:53.588Z,9.57
2019-04-13T20:23:01.492Z,9.47
2019-04-13T20:27:09.206Z,10.83
2019-04-13T20:31:18.243Z,8.97
2019-04-13T20:35:26.463Z,7.60
2019-04-13T20:39:37.655Z,7.97
2019-04-13T20:43:55.282Z,8.57
2019-04-13T20:47:58.966Z,11.33
2019-04-13T20:52:06.351Z,10.33
2019-04-13T20:56:16.436Z,10.30
2019-04-13T21:00:24.722Z,9.90
2019-04-13T21:04:32.732Z,9.90
2019-04-13T21:08:43.305Z,14.13
2019-04-13T21:12:51.113Z,18.23
2019-04-13T21:17:00.664Z,12.07
2019-04-13T21:21:08.893Z,13.40
2019-04-13T21:25:18.438Z,11.77
2019-04-13T21:29:26.638Z,11.83
2019-04-13T21:33:34.756Z,11.80
2019-04-13T21:37:43.077Z,12.30
2019-04-13T21:41:52.012Z,11.80
2019-04-13T21:46:00.261Z,11.87
2019-04-13T21:50:28.286Z,14.57
2019-04-13T21:54:38.617Z,15.40
2019-04-13T21:58:46.989Z,15.03
2019-04-13T22:02:58.255Z,14.50
2019-04-13T22:07:05.287Z,14.30
2019-04-13T22:11:14.857Z,13.87
2019-04-13T22:15:22.545Z,14.47
2019-04-13T22:19:31.061Z,12.80
2019-04-13T22:23:38.930Z,10.60
2019-04-13T22:27:55.588Z,10.43
2019-04-13T22:32:20.989Z,10.47
2019-04-13T22:36:33.146Z,9.57
2019-04-13T22:40:41.667Z,10.03
2019-04-13T22:44:57.203Z,10.53
2019-04-13T22:49:16.772Z,9.77
2019-04-13T22:53:43.737Z,10.00
2019-04-13T22:57:52.219Z,9.80
2019-04-13T23:02:10.876Z,10.90
2019-04-13T23:06:18.596Z,10.93
2019-04-13T23:10:26.961Z,10.23
2019-04-13T23:14:35.143Z,11.37
2019-04-13T23:18:42.931Z,12.80
2019-04-13T23:22:51.779Z,13.47
2019-04-13T23:27:00.284Z,13.83
2019-04-13T23:31:08.614Z,12.70
2019-04-13T23:35:17.029Z,12.80
2019-04-13T23:39:25.657Z,11.67
2019-04-13T23:43:34.273Z,10.97
2019-04-13T23:47:42.673Z,13.10
2019-04-13T23:51:51.468Z,13.40
2019-04-13T23:56:19.237Z,10.40
